sensor_id;sensor_type;location;lat;lon;timestamp;pressure;altitude;pressure_sealevel;temperature;humidity
52651;BME280;38537;47.226;39.702;2022-07-29T00:01:41;100426.56;;;26.30;51.26
52651;BME280;38537;47.226;39.702;2022-07-29T00:04:08;100421.66;;;26.34;51.34
52651;BME280;38537;47.226;39.702;2022-07-29T00:06:36;100411.41;;;26.40;51.39
52651;BME280;38537;47.226;39.702;2022-07-29T00:09:03;100416.28;;;26.47;50.99
52651;BME280;38537;47.226;39.702;2022-07-29T00:11:31;100410.13;;;26.48;50.93
52651;BME280;38537;47.226;39.702;2022-07-29T00:13:58;100418.72;;;26.48;50.87
52651;BME280;38537;47.226;39.702;2022-07-29T00:16:26;100398.31;;;26.25;51.20
52651;BME280;38537;47.226;39.702;2022-07-29T00:18:53;100417.56;;;26.21;51.40
52651;BME280;38537;47.226;39.702;2022-07-29T00:21:20;100406.56;;;26.16;51.67
52651;BME280;38537;47.226;39.702;2022-07-29T00:23:48;100418.38;;;26.21;51.59
52651;BME280;38537;47.226;39.702;2022-07-29T00:26:15;100409.81;;;26.18;51.64
52651;BME280;38537;47.226;39.702;2022-07-29T00:28:42;100419.22;;;26.18;51.52
52651;BME280;38537;47.226;39.702;2022-07-29T00:31:09;100411.88;;;26.10;51.69
52651;BME280;38537;47.226;39.702;2022-07-29T00:33:37;100413.97;;;25.95;52.27
52651;BME280;38537;47.226;39.702;2022-07-29T00:36:05;100407.03;;;25.86;52.10
52651;BME280;38537;47.226;39.702;2022-07-29T00:38:32;100413.56;;;25.83;52.70
52651;BME280;38537;47.226;39.702;2022-07-29T00:40:59;100421.31;;;25.82;52.91
52651;BME280;38537;47.226;39.702;2022-07-29T00:43:27;100417.66;;;25.82;52.65
52651;BME280;38537;47.226;39.702;2022-07-29T00:45:54;100417.25;;;25.80;52.61
52651;BME280;38537;47.226;39.702;2022-07-29T00:48:21;100417.25;;;25.83;52.81
52651;BME280;38537;47.226;39.702;2022-07-29T00:50:49;100413.56;;;25.83;52.67
52651;BME280;38537;47.226;39.702;2022-07-29T00:53:16;100407.44;;;25.88;52.62
52651;BME280;38537;47.226;39.702;2022-07-29T00:55:44;100423.38;;;25.92;52.77
52651;BME280;38537;47.226;39.702;2022-07-29T00:58:12;100413.97;;;25.78;53.30
52651;BME280;38537;47.226;39.702;2022-07-29T01:00:42;100418.88;;;25.77;53.18
52651;BME280;38537;47.226;39.702;2022-07-29T01:03:11;100423.41;;;25.64;53.36
52651;BME280;38537;47.226;39.702;2022-07-29T01:05:41;100420.50;;;25.57;53.44
52651;BME280;38537;47.226;39.702;2022-07-29T01:08:18;100434.78;;;25.57;53.64
52651;BME280;38537;47.226;39.702;2022-07-29T01:10:47;100418.84;;;25.56;53.71
52651;BME280;38537;47.226;39.702;2022-07-29T01:13:16;100422.94;;;25.55;54.13
52651;BME280;38537;47.226;39.702;2022-07-29T01:15:48;100418.88;;;25.59;54.02
52651;BME280;38537;47.226;39.702;2022-07-29T01:23:40;100432.75;;;25.36;54.75
52651;BME280;38537;47.226;39.702;2022-07-29T01:32:03;100441.63;;;24.92;56.83
52651;BME280;38537;47.226;39.702;2022-07-29T01:37:19;100437.50;;;24.75;57.42
52651;BME280;38537;47.226;39.702;2022-07-29T01:39:51;100442.34;;;24.60;57.51
52651;BME280;38537;47.226;39.702;2022-07-29T01:42:44;100439.06;;;24.58;58.34
52651;BME280;38537;47.226;39.702;2022-07-29T01:48:15;100421.97;;;24.62;57.99
52651;BME280;38537;47.226;39.702;2022-07-29T01:50:49;100422.78;;;24.70;57.91
52651;BME280;38537;47.226;39.702;2022-07-29T01:53:39;100421.59;;;24.78;57.34
52651;BME280;38537;47.226;39.702;2022-07-29T01:56:10;100425.25;;;24.75;57.15
52651;BME280;38537;47.226;39.702;2022-07-29T01:58:41;100420.75;;;24.74;57.21
52651;BME280;38537;47.226;39.702;2022-07-29T02:01:10;100404.84;;;24.66;57.47
52651;BME280;38537;47.226;39.702;2022-07-29T02:03:44;100436.31;;;24.83;57.23
52651;BME280;38537;47.226;39.702;2022-07-29T02:06:16;100431.81;;;24.82;57.17
52651;BME280;38537;47.226;39.702;2022-07-29T02:08:46;100445.25;;;24.75;57.55
52651;BME280;38537;47.226;39.702;2022-07-29T02:11:14;100430.53;;;24.62;57.91
52651;BME280;38537;47.226;39.702;2022-07-29T02:13:41;100443.56;;;24.56;58.03
52651;BME280;38537;47.226;39.702;2022-07-29T02:16:10;100434.88;;;24.35;58.63
52651;BME280;38537;47.226;39.702;2022-07-29T02:18:40;100427.94;;;24.32;58.61
52651;BME280;38537;47.226;39.702;2022-07-29T02:21:09;100444.28;;;24.39;58.94
52651;BME280;38537;47.226;39.702;2022-07-29T02:23:42;100422.66;;;24.34;59.03
52651;BME280;38537;47.226;39.702;2022-07-29T02:26:19;100422.69;;;24.41;58.81
52651;BME280;38537;47.226;39.702;2022-07-29T02:28:49;100427.22;;;24.46;58.88
52651;BME280;38537;47.226;39.702;2022-07-29T02:31:18;100432.91;;;24.49;58.87
52651;BME280;38537;47.226;39.702;2022-07-29T02:33:49;100424.34;;;24.49;58.71
52651;BME280;38537;47.226;39.702;2022-07-29T02:36:17;100428.03;;;24.53;58.88
52651;BME280;38537;47.226;39.702;2022-07-29T02:38:48;100428.44;;;24.52;58.79
52651;BME280;38537;47.226;39.702;2022-07-29T02:41:24;100402.34;;;24.46;58.85
52651;BME280;38537;47.226;39.702;2022-07-29T02:44:03;100422.75;;;24.55;58.73
52651;BME280;38537;47.226;39.702;2022-07-29T02:46:33;100419.09;;;24.58;58.64
52651;BME280;38537;47.226;39.702;2022-07-29T02:51:46;100424.81;;;24.69;58.76
52651;BME280;38537;47.226;39.702;2022-07-29T02:54:22;100434.22;;;24.70;58.80
52651;BME280;38537;47.226;39.702;2022-07-29T02:56:51;100435.47;;;24.76;58.40
52651;BME280;38537;47.226;39.702;2022-07-29T02:59:25;100436.31;;;24.83;58.46
52651;BME280;38537;47.226;39.702;2022-07-29T03:01:55;100420.81;;;24.84;58.36
52651;BME280;38537;47.226;39.702;2022-07-29T03:04:24;100428.97;;;24.93;58.59
52651;BME280;38537;47.226;39.702;2022-07-29T03:06:53;100423.25;;;24.93;58.23
52651;BME280;38537;47.226;39.702;2022-07-29T03:09:22;100426.19;;;25.00;58.23
52651;BME280;38537;47.226;39.702;2022-07-29T03:11:50;100428.66;;;25.09;58.04
52651;BME280;38537;47.226;39.702;2022-07-29T03:14:18;100431.91;;;25.07;58.11
52651;BME280;38537;47.226;39.702;2022-07-29T03:16:48;100429.47;;;25.09;58.22
52651;BME280;38537;47.226;39.702;2022-07-29T03:19:16;100439.25;;;25.15;57.99
52651;BME280;38537;47.226;39.702;2022-07-29T03:21:44;100441.31;;;25.22;58.06
52651;BME280;38537;47.226;39.702;2022-07-29T03:24:31;100442.56;;;25.24;58.33
52651;BME280;38537;47.226;39.702;2022-07-29T03:26:59;100440.50;;;25.36;57.70
52651;BME280;38537;47.226;39.702;2022-07-29T03:29:27;100429.91;;;25.29;58.11
52651;BME280;38537;47.226;39.702;2022-07-29T03:32:05;100441.75;;;25.42;57.64
52651;BME280;38537;47.226;39.702;2022-07-29T03:34:35;100442.56;;;25.39;57.71
52651;BME280;38537;47.226;39.702;2022-07-29T03:37:04;100453.19;;;25.49;57.31
52651;BME280;38537;47.226;39.702;2022-07-29T03:39:37;100454.41;;;25.55;56.80
52651;BME280;38537;47.226;39.702;2022-07-29T03:42:06;100452.41;;;25.63;56.95
52651;BME280;38537;47.226;39.702;2022-07-29T03:44:36;100445.88;;;25.66;56.93
52651;BME280;38537;47.226;39.702;2022-07-29T03:47:06;100447.09;;;25.68;57.06
52651;BME280;38537;47.226;39.702;2022-07-29T03:49:36;100445.47;;;25.71;56.99
52651;BME280;38537;47.226;39.702;2022-07-29T03:52:05;100452.81;;;25.75;57.19
52651;BME280;38537;47.226;39.702;2022-07-29T03:54:33;100450.75;;;25.79;56.95
52651;BME280;38537;47.226;39.702;2022-07-29T03:57:01;100453.22;;;25.77;56.39
52651;BME280;38537;47.226;39.702;2022-07-29T03:59:30;100450.75;;;25.79;56.40
52651;BME280;38537;47.226;39.702;2022-07-29T04:02:02;100447.88;;;25.79;56.64
52651;BME280;38537;47.226;39.702;2022-07-29T04:04:32;100456.88;;;25.85;56.69
52651;BME280;38537;47.226;39.702;2022-07-29T04:07:00;100434.00;;;25.78;56.51
52651;BME280;38537;47.226;39.702;2022-07-29T04:09:28;100443.81;;;25.84;56.54
52651;BME280;38537;47.226;39.702;2022-07-29T04:11:55;100455.25;;;25.94;56.12
52651;BME280;38537;47.226;39.702;2022-07-29T04:14:30;100460.53;;;26.14;55.81
52651;BME280;38537;47.226;39.702;2022-07-29T04:16:58;100458.09;;;26.02;56.00
52651;BME280;38537;47.226;39.702;2022-07-29T04:19:26;100451.13;;;25.99;55.84
52651;BME280;38537;47.226;39.702;2022-07-29T04:21:53;100459.72;;;26.03;55.93
52651;BME280;38537;47.226;39.702;2022-07-29T04:24:20;100463.41;;;26.07;55.81
52651;BME280;38537;47.226;39.702;2022-07-29T04:26:48;100467.91;;;26.08;55.73
52651;BME280;38537;47.226;39.702;2022-07-29T04:29:15;100469.13;;;26.00;55.85
52651;BME280;38537;47.226;39.702;2022-07-29T04:31:43;100467.50;;;25.99;56.01
52651;BME280;38537;47.226;39.702;2022-07-29T04:34:11;100472.00;;;26.03;55.87
52651;BME280;38537;47.226;39.702;2022-07-29T04:36:39;100456.88;;;25.99;56.31
52651;BME280;38537;47.226;39.702;2022-07-29T04:39:07;100468.72;;;26.05;56.18
52651;BME280;38537;47.226;39.702;2022-07-29T04:41:34;100466.25;;;26.03;55.88
52651;BME280;38537;47.226;39.702;2022-07-29T04:44:01;100476.91;;;26.10;55.95
52651;BME280;38537;47.226;39.702;2022-07-29T04:46:33;100479.75;;;26.17;55.92
52651;BME280;38537;47.226;39.702;2022-07-29T04:49:02;100473.59;;;26.22;56.06
52651;BME280;38537;47.226;39.702;2022-07-29T04:51:30;100464.19;;;26.25;56.01
52651;BME280;38537;47.226;39.702;2022-07-29T04:53:58;100475.66;;;26.36;55.77
52651;BME280;38537;47.226;39.702;2022-07-29T04:56:26;100468.66;;;26.44;55.56
52651;BME280;38537;47.226;39.702;2022-07-29T04:58:53;100469.88;;;26.46;55.59
52651;BME280;38537;47.226;39.702;2022-07-29T05:01:21;100465.75;;;26.54;55.59
52651;BME280;38537;47.226;39.702;2022-07-29T05:03:48;100468.97;;;26.63;55.04
52651;BME280;38537;47.226;39.702;2022-07-29T05:06:15;100480.81;;;26.73;55.10
52651;BME280;38537;47.226;39.702;2022-07-29T05:08:43;100475.91;;;26.77;54.65
52651;BME280;38537;47.226;39.702;2022-07-29T05:11:10;100467.31;;;26.73;54.75
52651;BME280;38537;47.226;39.702;2022-07-29T05:13:43;100483.22;;;26.85;54.66
52651;BME280;38537;47.226;39.702;2022-07-29T05:16:14;100482.00;;;26.86;54.67
52651;BME280;38537;47.226;39.702;2022-07-29T05:18:41;100478.28;;;26.92;54.40
52651;BME280;38537;47.226;39.702;2022-07-29T05:21:09;100482.34;;;27.06;54.53
52651;BME280;38537;47.226;39.702;2022-07-29T05:23:36;100475.31;;;27.14;54.50
52651;BME280;38537;47.226;39.702;2022-07-29T05:26:04;100473.63;;;27.23;54.49
52651;BME280;38537;47.226;39.702;2022-07-29T05:28:34;100480.09;;;27.35;54.10
52651;BME280;38537;47.226;39.702;2022-07-29T05:31:04;100486.66;;;27.39;53.63
52651;BME280;38537;47.226;39.702;2022-07-29T05:33:32;100479.66;;;27.43;53.23
52651;BME280;38537;47.226;39.702;2022-07-29T05:36:04;100489.00;;;27.58;53.50
52651;BME280;38537;47.226;39.702;2022-07-29T05:38:35;100480.72;;;27.67;53.25
52651;BME280;38537;47.226;39.702;2022-07-29T05:41:03;100475.72;;;27.78;53.25
52651;BME280;38537;47.226;39.702;2022-07-29T05:43:31;100476.50;;;27.82;52.54
52651;BME280;38537;47.226;39.702;2022-07-29T05:45:58;100472.78;;;27.85;52.56
52651;BME280;38537;47.226;39.702;2022-07-29T05:48:27;100476.75;;;27.98;52.32
52651;BME280;38537;47.226;39.702;2022-07-29T05:50:54;100479.53;;;28.09;52.05
52651;BME280;38537;47.226;39.702;2022-07-29T05:53:22;100473.75;;;28.13;51.48
52651;BME280;38537;47.226;39.702;2022-07-29T05:55:50;100481.56;;;28.12;51.09
52651;BME280;38537;47.226;39.702;2022-07-29T05:58:18;100483.53;;;28.19;51.10
52651;BME280;38537;47.226;39.702;2022-07-29T06:00:45;100481.06;;;28.21;50.66
52651;BME280;38537;47.226;39.702;2022-07-29T06:03:12;100484.31;;;28.26;50.05
52651;BME280;38537;47.226;39.702;2022-07-29T06:05:40;100471.94;;;28.33;49.99
52651;BME280;38537;47.226;39.702;2022-07-29T06:08:07;100467.44;;;28.32;49.37
52651;BME280;38537;47.226;39.702;2022-07-29T06:10:35;100480.88;;;28.39;49.55
52651;BME280;38537;47.226;39.702;2022-07-29T06:13:03;100473.47;;;28.41;49.31
52651;BME280;38537;47.226;39.702;2022-07-29T06:15:30;100458.66;;;28.43;49.59
52651;BME280;38537;47.226;39.702;2022-07-29T06:17:57;100470.91;;;28.50;49.23
52651;BME280;38537;47.226;39.702;2022-07-29T06:20:31;100474.06;;;28.59;49.84
52651;BME280;38537;47.226;39.702;2022-07-29T06:22:59;100473.22;;;28.62;49.53
52651;BME280;38537;47.226;39.702;2022-07-29T06:25:27;100483.78;;;28.73;49.35
52651;BME280;38537;47.226;39.702;2022-07-29T06:27:57;100468.94;;;28.78;48.55
52651;BME280;38537;47.226;39.702;2022-07-29T06:30:24;100477.47;;;28.85;48.53
52651;BME280;38537;47.226;39.702;2022-07-29T06:32:52;100485.25;;;28.88;47.27
52651;BME280;38537;47.226;39.702;2022-07-29T06:35:20;100470.53;;;28.82;47.27
52651;BME280;38537;47.226;39.702;2022-07-29T06:38:07;100470.44;;;28.89;47.10
52651;BME280;38537;47.226;39.702;2022-07-29T06:40:55;100470.63;;;29.06;46.65
52651;BME280;38537;47.226;39.702;2022-07-29T06:43:40;100475.94;;;29.07;46.07
52651;BME280;38537;47.226;39.702;2022-07-29T06:46:19;100474.66;;;29.12;46.25
52651;BME280;38537;47.226;39.702;2022-07-29T06:48:47;100477.88;;;29.17;46.19
52651;BME280;38537;47.226;39.702;2022-07-29T06:51:15;100477.38;;;29.22;45.81
52651;BME280;38537;47.226;39.702;2022-07-29T06:53:53;100474.00;;;29.27;44.87
52651;BME280;38537;47.226;39.702;2022-07-29T06:56:30;100467.34;;;29.34;45.39
52651;BME280;38537;47.226;39.702;2022-07-29T06:59:07;100473.84;;;29.38;44.28
52651;BME280;38537;47.226;39.702;2022-07-29T07:01:38;100475.38;;;29.46;44.71
52651;BME280;38537;47.226;39.702;2022-07-29T07:04:07;100460.94;;;29.50;44.37
52651;BME280;38537;47.226;39.702;2022-07-29T07:06:36;100448.19;;;29.51;43.85
52651;BME280;38537;47.226;39.702;2022-07-29T07:09:03;100462.47;;;29.58;43.50
52651;BME280;38537;47.226;39.702;2022-07-29T07:11:31;100459.41;;;29.68;43.91
52651;BME280;38537;47.226;39.702;2022-07-29T07:13:59;100449.50;;;29.70;43.66
52651;BME280;38537;47.226;39.702;2022-07-29T07:16:30;100459.22;;;29.79;43.13
52651;BME280;38537;47.226;39.702;2022-07-29T07:18:59;100466.84;;;29.89;43.13
52651;BME280;38537;47.226;39.702;2022-07-29T07:21:27;100461.41;;;29.95;43.01
52651;BME280;38537;47.226;39.702;2022-07-29T07:23:57;100466.34;;;29.98;42.39
52651;BME280;38537;47.226;39.702;2022-07-29T07:26:25;100444.91;;;29.99;42.83
52651;BME280;38537;47.226;39.702;2022-07-29T07:28:52;100453.00;;;30.08;42.86
52651;BME280;38537;47.226;39.702;2022-07-29T07:31:20;100446.94;;;30.02;42.26
52651;BME280;38537;47.226;39.702;2022-07-29T07:33:47;100457.50;;;30.09;42.57
52651;BME280;38537;47.226;39.702;2022-07-29T07:36:15;100458.22;;;30.13;41.89
52651;BME280;38537;47.226;39.702;2022-07-29T07:38:42;100449.59;;;30.13;41.82
52651;BME280;38537;47.226;39.702;2022-07-29T07:41:09;100441.38;;;30.11;42.27
52651;BME280;38537;47.226;39.702;2022-07-29T07:43:36;100453.66;;;30.15;42.63
52651;BME280;38537;47.226;39.702;2022-07-29T07:46:04;100450.78;;;30.15;43.28
52651;BME280;38537;47.226;39.702;2022-07-29T07:48:32;100460.56;;;30.21;42.84
52651;BME280;38537;47.226;39.702;2022-07-29T07:51:01;100453.16;;;30.20;42.97
52651;BME280;38537;47.226;39.702;2022-07-29T07:53:29;100445.72;;;30.23;42.81
52651;BME280;38537;47.226;39.702;2022-07-29T07:55:58;100454.94;;;30.34;42.18
52651;BME280;38537;47.226;39.702;2022-07-29T07:58:41;100447.03;;;30.38;41.49
52651;BME280;38537;47.226;39.702;2022-07-29T08:01:09;100442.84;;;30.43;41.76
52651;BME280;38537;47.226;39.702;2022-07-29T08:03:37;100442.78;;;30.46;41.66
52651;BME280;38537;47.226;39.702;2022-07-29T08:06:05;100454.84;;;30.61;41.38
52651;BME280;38537;47.226;39.702;2022-07-29T08:08:33;100446.13;;;30.64;40.68
52651;BME280;38537;47.226;39.702;2022-07-29T08:11:01;100448.63;;;30.62;40.40
52651;BME280;38537;47.226;39.702;2022-07-29T08:13:36;100449.91;;;30.61;39.55
52651;BME280;38537;47.226;39.702;2022-07-29T08:16:06;100440.88;;;30.59;39.73
52651;BME280;38537;47.226;39.702;2022-07-29T08:18:41;100454.41;;;30.62;39.38
52651;BME280;38537;47.226;39.702;2022-07-29T08:21:09;100441.31;;;30.58;40.16
52651;BME280;38537;47.226;39.702;2022-07-29T08:23:42;100430.00;;;30.47;40.20
52651;BME280;38537;47.226;39.702;2022-07-29T08:26:20;100445.50;;;30.53;39.76
52651;BME280;38537;47.226;39.702;2022-07-29T08:28:49;100413.22;;;30.42;39.17
52651;BME280;38537;47.226;39.702;2022-07-29T08:31:17;100420.75;;;30.56;39.17
52651;BME280;38537;47.226;39.702;2022-07-29T08:33:45;100424.63;;;30.69;39.27
52651;BME280;38537;47.226;39.702;2022-07-29T08:36:13;100417.59;;;30.70;39.03
52651;BME280;38537;47.226;39.702;2022-07-29T08:38:40;100428.88;;;30.81;39.60
52651;BME280;38537;47.226;39.702;2022-07-29T08:41:08;100420.59;;;30.83;38.99
52651;BME280;38537;47.226;39.702;2022-07-29T08:43:35;100425.97;;;31.00;38.64
52651;BME280;38537;47.226;39.702;2022-07-29T08:46:04;100422.91;;;31.08;38.13
52651;BME280;38537;47.226;39.702;2022-07-29T08:48:32;100434.22;;;31.18;38.05
52651;BME280;38537;47.226;39.702;2022-07-29T08:51:01;100444.19;;;31.17;37.28
52651;BME280;38537;47.226;39.702;2022-07-29T08:53:30;100429.88;;;31.10;38.00
52651;BME280;38537;47.226;39.702;2022-07-29T08:55:59;100429.88;;;31.10;37.88
52651;BME280;38537;47.226;39.702;2022-07-29T08:58:32;100414.94;;;31.15;37.65
52651;BME280;38537;47.226;39.702;2022-07-29T09:01:04;100429.91;;;31.26;37.73
52651;BME280;38537;47.226;39.702;2022-07-29T09:03:40;100422.44;;;31.29;37.41
52651;BME280;38537;47.226;39.702;2022-07-29T09:06:08;100412.97;;;31.28;38.01
52651;BME280;38537;47.226;39.702;2022-07-29T09:08:36;100410.63;;;31.23;37.86
52651;BME280;38537;47.226;39.702;2022-07-29T09:11:03;100411.50;;;31.20;37.83
52651;BME280;38537;47.226;39.702;2022-07-29T09:13:31;100416.69;;;31.29;37.39
52651;BME280;38537;47.226;39.702;2022-07-29T09:15:59;100408.00;;;31.29;36.82
52651;BME280;38537;47.226;39.702;2022-07-29T09:18:40;100409.19;;;31.48;36.94
52651;BME280;38537;47.226;39.702;2022-07-29T09:21:13;100401.44;;;31.45;37.08
52651;BME280;38537;47.226;39.702;2022-07-29T09:24:13;100400.44;;;31.51;37.24
52651;BME280;38537;47.226;39.702;2022-07-29T09:26:43;100406.88;;;31.59;36.06
52651;BME280;38537;47.226;39.702;2022-07-29T09:29:17;100390.63;;;31.49;36.53
52651;BME280;38537;47.226;39.702;2022-07-29T09:31:47;100387.38;;;31.47;37.05
52651;BME280;38537;47.226;39.702;2022-07-29T09:34:20;100393.88;;;31.51;36.83
52651;BME280;38537;47.226;39.702;2022-07-29T09:36:50;100386.38;;;31.53;36.84
52651;BME280;38537;47.226;39.702;2022-07-29T09:42:01;100383.50;;;31.53;37.05
52651;BME280;38537;47.226;39.702;2022-07-29T09:44:46;100383.94;;;31.68;36.76
52651;BME280;38537;47.226;39.702;2022-07-29T09:47:16;100387.91;;;31.58;36.17
52651;BME280;38537;47.226;39.702;2022-07-29T09:49:59;100377.41;;;31.64;36.33
52651;BME280;38537;47.226;39.702;2022-07-29T09:52:29;100386.91;;;31.64;36.10
52651;BME280;38537;47.226;39.702;2022-07-29T09:55:09;100396.69;;;31.71;34.95
52651;BME280;38537;47.226;39.702;2022-07-29T09:57:45;100393.06;;;31.66;34.88
52651;BME280;38537;47.226;39.702;2022-07-29T10:00:18;100394.97;;;31.73;34.53
52651;BME280;38537;47.226;39.702;2022-07-29T10:02:47;100392.06;;;31.73;35.07
52651;BME280;38537;47.226;39.702;2022-07-29T10:05:24;100394.41;;;31.78;34.64
52651;BME280;38537;47.226;39.702;2022-07-29T10:07:58;100370.31;;;31.68;35.20
52651;BME280;38537;47.226;39.702;2022-07-29T10:10:31;100378.25;;;31.81;34.40
52651;BME280;38537;47.226;39.702;2022-07-29T10:13:02;100382.28;;;31.83;35.15
52651;BME280;38537;47.226;39.702;2022-07-29T10:15:38;100378.72;;;31.79;36.33
52651;BME280;38537;47.226;39.702;2022-07-29T10:18:08;100381.31;;;31.90;36.28
52651;BME280;38537;47.226;39.702;2022-07-29T10:20:36;100383.56;;;31.98;36.51
52651;BME280;38537;47.226;39.702;2022-07-29T10:23:04;100384.03;;;32.10;34.35
52651;BME280;38537;47.226;39.702;2022-07-29T10:25:32;100375.75;;;32.12;33.35
52651;BME280;38537;47.226;39.702;2022-07-29T10:28:00;100378.19;;;32.13;33.21
52651;BME280;38537;47.226;39.702;2022-07-29T10:30:27;100376.91;;;32.14;33.08
52651;BME280;38537;47.226;39.702;2022-07-29T10:35:47;100386.00;;;32.29;32.82
52651;BME280;38537;47.226;39.702;2022-07-29T10:44:23;100364.72;;;32.23;32.84
52651;BME280;38537;47.226;39.702;2022-07-29T10:46:52;100363.97;;;32.19;32.50
52651;BME280;38537;47.226;39.702;2022-07-29T10:49:25;100384.19;;;32.35;32.37
52651;BME280;38537;47.226;39.702;2022-07-29T10:52:06;100392.31;;;32.40;32.46
52651;BME280;38537;47.226;39.702;2022-07-29T10:54:41;100384.91;;;32.39;32.85
52651;BME280;38537;47.226;39.702;2022-07-29T10:57:19;100386.88;;;32.42;33.22
52651;BME280;38537;47.226;39.702;2022-07-29T11:02:44;100378.63;;;32.12;33.97
52651;BME280;38537;47.226;39.702;2022-07-29T11:05:17;100379.91;;;32.11;34.09
52651;BME280;38537;47.226;39.702;2022-07-29T11:10:48;100390.50;;;32.01;34.21
52651;BME280;38537;47.226;39.702;2022-07-29T11:13:49;100386.22;;;32.06;33.88
52651;BME280;38537;47.226;39.702;2022-07-29T11:16:21;100364.22;;;31.95;34.15
52651;BME280;38537;47.226;39.702;2022-07-29T11:21:44;100376.88;;;32.01;33.88
52651;BME280;38537;47.226;39.702;2022-07-29T11:24:29;100374.66;;;32.06;33.52
52651;BME280;38537;47.226;39.702;2022-07-29T11:27:30;100366.81;;;32.06;34.00
52651;BME280;38537;47.226;39.702;2022-07-29T11:30:07;100353.03;;;31.97;33.16
52651;BME280;38537;47.226;39.702;2022-07-29T11:32:39;100361.84;;;32.07;32.99
52651;BME280;38537;47.226;39.702;2022-07-29T11:35:18;100366.34;;;32.08;33.28
52651;BME280;38537;47.226;39.702;2022-07-29T11:38:25;100360.09;;;31.96;33.99
52651;BME280;38537;47.226;39.702;2022-07-29T11:43:59;100363.69;;;32.00;33.97
52651;BME280;38537;47.226;39.702;2022-07-29T11:46:46;100359.53;;;32.01;34.51
52651;BME280;38537;47.226;39.702;2022-07-29T11:49:24;100356.84;;;31.94;34.81
52651;BME280;38537;47.226;39.702;2022-07-29T11:51:59;100361.78;;;31.94;34.94
52651;BME280;38537;47.226;39.702;2022-07-29T11:54:32;100342.75;;;31.96;35.27
52651;BME280;38537;47.226;39.702;2022-07-29T11:57:20;100340.94;;;32.02;35.07
52651;BME280;38537;47.226;39.702;2022-07-29T11:59:48;100337.09;;;32.06;34.86
52651;BME280;38537;47.226;39.702;2022-07-29T12:02:16;100333.63;;;31.98;34.76
52651;BME280;38537;47.226;39.702;2022-07-29T12:05:04;100346.25;;;32.04;34.83
52651;BME280;38537;47.226;39.702;2022-07-29T12:07:38;100341.94;;;31.96;34.85
52651;BME280;38537;47.226;39.702;2022-07-29T12:10:11;100324.69;;;31.92;34.69
52651;BME280;38537;47.226;39.702;2022-07-29T12:12:55;100332.56;;;31.92;34.68
52651;BME280;38537;47.226;39.702;2022-07-29T12:15:22;100327.59;;;31.92;35.17
52651;BME280;38537;47.226;39.702;2022-07-29T12:18:18;100339.03;;;31.96;35.11
52651;BME280;38537;47.226;39.702;2022-07-29T12:21:01;100341.66;;;31.90;34.89
52651;BME280;38537;47.226;39.702;2022-07-29T12:23:32;100331.47;;;31.86;35.29
52651;BME280;38537;47.226;39.702;2022-07-29T12:26:04;100340.16;;;31.86;35.39
52651;BME280;38537;47.226;39.702;2022-07-29T12:28:48;100331.84;;;31.88;35.24
52651;BME280;38537;47.226;39.702;2022-07-29T12:31:15;100327.31;;;31.87;35.17
52651;BME280;38537;47.226;39.702;2022-07-29T12:34:03;100335.81;;;31.94;34.91
52651;BME280;38537;47.226;39.702;2022-07-29T12:36:31;100325.59;;;31.89;35.02
52651;BME280;38537;47.226;39.702;2022-07-29T12:38:59;100331.09;;;32.00;34.22
52651;BME280;38537;47.226;39.702;2022-07-29T12:41:30;100330.41;;;32.09;33.80
52651;BME280;38537;47.226;39.702;2022-07-29T12:43:57;100321.28;;;32.10;34.39
52651;BME280;38537;47.226;39.702;2022-07-29T12:46:25;100322.09;;;32.11;34.30
52651;BME280;38537;47.226;39.702;2022-07-29T12:48:53;100328.13;;;32.16;34.55
52651;BME280;38537;47.226;39.702;2022-07-29T12:51:30;100316.78;;;32.09;34.62
52651;BME280;38537;47.226;39.702;2022-07-29T12:54:36;100320.03;;;32.11;34.58
52651;BME280;38537;47.226;39.702;2022-07-29T12:56:59;100321.38;;;32.07;35.17
52651;BME280;38537;47.226;39.702;2022-07-29T12:59:27;100319.53;;;32.00;35.00
52651;BME280;38537;47.226;39.702;2022-07-29T13:01:54;100312.69;;;31.94;35.06
52651;BME280;38537;47.226;39.702;2022-07-29T13:04:30;100308.53;;;31.95;34.85
52651;BME280;38537;47.226;39.702;2022-07-29T13:07:02;100321.38;;;32.07;35.13
52651;BME280;38537;47.226;39.702;2022-07-29T13:09:44;100320.56;;;32.06;35.24
52651;BME280;38537;47.226;39.702;2022-07-29T13:12:15;100323.53;;;32.19;34.99
52651;BME280;38537;47.226;39.702;2022-07-29T13:14:45;100320.78;;;32.28;34.14
52651;BME280;38537;47.226;39.702;2022-07-29T13:17:14;100313.09;;;32.38;34.40
52651;BME280;38537;47.226;39.702;2022-07-29T13:22:47;100315.16;;;32.50;34.00
52651;BME280;38537;47.226;39.702;2022-07-29T13:25:24;100314.16;;;32.56;33.80
52651;BME280;38537;47.226;39.702;2022-07-29T13:27:52;100309.19;;;32.57;33.84
52651;BME280;38537;47.226;39.702;2022-07-29T13:30:21;100300.72;;;32.50;33.73
52651;BME280;38537;47.226;39.702;2022-07-29T13:32:51;100311.59;;;32.58;33.83
52651;BME280;38537;47.226;39.702;2022-07-29T13:35:19;100311.59;;;32.58;33.87
52651;BME280;38537;47.226;39.702;2022-07-29T13:37:48;100316.59;;;32.58;33.08
52651;BME280;38537;47.226;39.702;2022-07-29T13:40:17;100283.25;;;32.53;33.33
52651;BME280;38537;47.226;39.702;2022-07-29T13:42:45;100283.25;;;32.53;33.08
52651;BME280;38537;47.226;39.702;2022-07-29T13:45:13;100298.56;;;32.66;33.10
52651;BME280;38537;47.226;39.702;2022-07-29T13:47:40;100302.13;;;32.70;33.12